This is the latest recevied weather packets stored in our database for station/object IZ5MJO-13. If no packets are shown the sender has not sent any weather packets the latest 1 day(s).
| Time | Temp. | Humidity | Pressure | Rain* | Wind** | Luminosity | Snow |
|---|---|---|---|---|---|---|---|
| 1778030323 | 12.78° C | 83% | 1001.8 hPa | - | - | - | - |
| 1778030295 | 12.78° C | 81% | 1001.9 hPa | - | - | - | - |
| 1778030285 | 12.78° C | 83% | 1001.9 hPa | - | - | - | - |
| 1778030257 | 12.78° C | 82% | 1002 hPa | - | - | - | - |
| 1778030241 | 13.33° C | 81% | 1002.1 hPa | - | - | - | - |
| 1778030216 | 13.33° C | 82% | 1002.4 hPa | - | - | - | - |
| 1778030204 | 13.33° C | 80% | 1002.7 hPa | - | - | - | - |
| 1778030194 | 13.33° C | 82% | 1002.8 hPa | - | - | - | - |
| 1778030178 | 13.33° C | 83% | 1002.8 hPa | - | - | - | - |
| 1778030153 | 13.33° C | 82% | 1003 hPa | - | - | - | - |
| 1778030114 | 13.33° C | 81% | 1003 hPa | - | - | - | - |
| 1778030089 | 13.33° C | 84% | 1003.1 hPa | - | - | - | - |
| 1778030073 | 13.33° C | 80% | 1003.4 hPa | - | - | - | - |
| 1778030036 | 13.33° C | 83% | 1001.4 hPa | - | - | - | - |
| 1778030035 | 13.33° C | 81% | 1003.6 hPa | - | - | - | - |
| 1778030011 | 13.33° C | 82% | 1003.7 hPa | - | - | - | - |
| 1778029993 | 13.33° C | 80% | 1003.7 hPa | - | - | - | - |
| 1778029961 | 13.33° C | 81% | 1003.6 hPa | - | - | - | - |
| 1778029135 | 12.78° C | 83% | 1001.6 hPa | - | - | - | - |
| 1778028235 | 12.78° C | 83% | 1001.8 hPa | - | - | - | - |
| 1778027335 | 12.78° C | 81% | 1001.9 hPa | - | - | - | - |
| 1778022834 | 13.33° C | 82% | 1002.4 hPa | - | - | - | - |
| 1778018332 | 13.33° C | 81% | 1003 hPa | - | - | - | - |
* Rain since midnight (hover to see other rain measurements)
** Current wind speed in m/s (hover to see current wind gust speed)